Time;durP1;ratioP1;P1;durP2;ratioP2;P2;SDS_P1;SDS_P2;PMS_P1;PMS_P2;Temp;Humidity;BMP_temperature;BMP_pressure;BME280_temperature;BME280_humidity;BME280_pressure;Samples;Min_cycle;Max_cycle;Signal;HPM_P1;HPM_P2
2022/07/09 00:00:54;;;;;;;36.30;17.90;;;;;;;36.14;48.53;101362.16;6186119;23;20361;-71
2022/07/09 00:03:20;;;;;;;39.13;21.57;;;;;;;36.19;48.14;101352.13;6184571;23;20381;-72
2022/07/09 00:05:46;;;;;;;33.33;18.70;;;;;;;36.10;48.33;101363.84;6186402;23;20431;-72
2022/07/09 00:08:12;;;;;;;32.97;19.43;;;;;;;35.93;48.93;101361.53;6184462;23;20736;-71
2022/07/09 00:10:39;;;;;;;32.43;16.80;;;;;;;35.81;49.10;101353.72;6184301;23;20883;-72
2022/07/09 00:13:05;;;;;;;28.60;19.00;;;;;;;35.77;49.24;101352.66;6184364;23;20388;-71
2022/07/09 00:15:31;;;;;;;41.60;17.50;;;;;;;35.74;49.39;101345.94;6186575;23;20344;-71
2022/07/09 00:17:58;;;;;;;28.60;18.57;;;;;;;35.78;49.22;101343.47;6186310;23;20407;-73
2022/07/09 00:20:24;;;;;;;39.13;18.00;;;;;;;35.86;48.83;101350.19;6184477;23;20381;-72
2022/07/09 00:22:50;;;;;;;31.40;17.20;;;;;;;35.86;48.67;101348.31;6184028;23;20713;-72
2022/07/09 00:25:16;;;;;;;37.80;22.30;;;;;;;35.98;48.74;101337.19;6197000;23;20435;-72
2022/07/09 00:27:42;;;;;;;35.40;18.17;;;;;;;36.00;48.63;101346.63;6189276;23;20387;-72
2022/07/09 00:30:09;;;;;;;38.87;19.93;;;;;;;36.03;48.78;101342.53;6216294;23;20360;-72
2022/07/09 00:32:35;;;;;;;33.50;17.40;;;;;;;36.10;48.10;101351.16;6189404;23;20411;-72
2022/07/09 00:35:01;;;;;;;40.30;21.60;;;;;;;36.16;48.50;101344.63;6189142;23;20376;-72
2022/07/09 00:37:27;;;;;;;40.37;21.20;;;;;;;36.21;47.88;101341.84;6164541;23;20411;-72
2022/07/09 00:39:54;;;;;;;40.77;19.03;;;;;;;36.20;48.51;101342.94;6189144;23;20879;-72
2022/07/09 00:42:20;;;;;;;35.83;20.60;;;;;;;36.27;47.95;101348.03;6189050;23;20844;-72
2022/07/09 00:44:46;;;;;;;54.37;25.50;;;;;;;36.20;48.71;101344.84;6189155;23;20387;-71
2022/07/09 00:47:13;;;;;;;52.47;22.40;;;;;;;36.23;48.25;101347.00;6189129;23;20419;-72
2022/07/09 00:49:42;;;;;;;31.53;16.67;;;;;;;36.11;48.37;101344.66;6216360;23;20418;-72
2022/07/09 00:52:13;;;;;;;42.33;19.97;;;;;;;36.18;48.46;101333.53;6216273;23;20352;-72
2022/07/09 00:54:41;;;;;;;44.23;20.07;;;;;;;36.20;48.63;101337.53;6140483;23;20441;-72
2022/07/09 00:57:08;;;;;;;39.83;20.00;;;;;;;36.20;48.30;101323.22;6164279;23;20372;-72
2022/07/09 00:59:39;;;;;;;36.17;20.60;;;;;;;36.19;48.58;101317.03;6216104;23;20368;-72
2022/07/09 01:02:07;;;;;;;42.97;20.00;;;;;;;36.17;48.10;101316.50;6216141;23;20884;-72
2022/07/09 01:04:33;;;;;;;35.03;18.07;;;;;;;36.23;48.58;101314.56;6189018;23;20387;-72
2022/07/09 01:07:00;;;;;;;39.33;21.97;;;;;;;36.29;48.33;101308.03;6188785;23;20418;-70
2022/07/09 01:09:27;;;;;;;40.13;20.40;;;;;;;36.22;47.89;101310.28;6215886;23;20407;-70
2022/07/09 01:11:54;;;;;;;39.00;21.03;;;;;;;36.25;47.70;101302.38;6188656;23;20453;-72
2022/07/09 01:14:20;;;;;;;32.93;22.00;;;;;;;36.26;48.18;101295.09;6188967;23;20469;-72
2022/07/09 01:16:46;;;;;;;41.47;18.90;;;;;;;36.18;47.85;101287.59;6215682;23;20403;-72
2022/07/09 01:19:12;;;;;;;28.67;16.53;;;;;;;36.24;47.99;101289.19;6215791;23;20360;-71
2022/07/09 01:21:39;;;;;;;37.20;20.33;;;;;;;36.15;47.96;101280.88;6188686;23;20418;-72
2022/07/09 01:24:05;;;;;;;34.33;19.87;;;;;;;36.02;47.94;101268.81;6188482;23;20469;-71
2022/07/09 01:26:31;;;;;;;39.17;19.20;;;;;;;36.10;48.37;101266.63;6183379;23;20452;-72
2022/07/09 01:28:57;;;;;;;47.90;18.97;;;;;;;36.15;48.14;101261.16;6183833;23;20384;-71
2022/07/09 01:31:23;;;;;;;37.43;18.50;;;;;;;36.02;48.40;101260.72;6185540;23;20423;-72
2022/07/09 01:33:50;;;;;;;32.53;18.07;;;;;;;36.07;48.21;101267.97;6183729;23;20733;-72
2022/07/09 01:36:16;;;;;;;42.70;18.53;;;;;;;36.12;47.99;101261.72;6185509;23;20852;-72
2022/07/09 01:38:43;;;;;;;28.80;16.73;;;;;;;36.14;47.90;101259.53;6185238;23;20443;-72
2022/07/09 01:41:09;;;;;;;38.87;19.80;;;;;;;36.05;48.18;101257.47;6183641;23;20889;-71
2022/07/09 01:43:36;;;;;;;40.40;19.53;;;;;;;36.10;47.77;101247.72;6183565;23;20393;-72
2022/07/09 01:46:02;;;;;;;28.23;15.80;;;;;;;36.25;47.50;101247.56;6183512;23;20508;-72
2022/07/09 01:48:31;;;;;;;35.97;17.80;;;;;;;36.19;48.18;101251.41;6183636;23;20392;-72
2022/07/09 01:50:58;;;;;;;35.20;18.00;;;;;;;36.22;48.06;101251.66;6183481;23;20893;-72
2022/07/09 01:53:24;;;;;;;43.00;21.60;;;;;;;36.19;47.57;101254.09;6183658;23;20868;-72
2022/07/09 01:55:51;;;;;;;33.40;18.27;;;;;;;36.12;48.15;101248.22;6183436;23;20412;-72
2022/07/09 01:58:17;;;;;;;45.00;17.43;;;;;;;36.01;48.27;101251.00;6183616;23;20384;-72
2022/07/09 02:00:44;;;;;;;28.20;18.83;;;;;;;36.04;48.62;101255.06;6185276;23;20436;-72
2022/07/09 02:03:10;;;;;;;31.40;16.33;;;;;;;36.08;48.38;101252.59;6185185;23;20357;-72
2022/07/09 02:05:36;;;;;;;31.60;17.20;;;;;;;36.00;48.77;101248.59;6185258;23;20408;-71
2022/07/09 02:08:02;;;;;;;33.40;18.40;;;;;;;35.86;48.80;101247.63;6183350;23;20406;-72
2022/07/09 02:10:28;;;;;;;50.70;19.23;;;;;;;35.98;48.42;101240.00;6183280;23;20785;-72
2022/07/09 02:12:54;;;;;;;31.23;19.80;;;;;;;36.07;48.03;101243.69;6183298;23;20384;-72
2022/07/09 02:15:21;;;;;;;34.03;19.30;;;;;;;35.95;48.20;101251.34;6183401;23;20368;-71
2022/07/09 02:17:48;;;;;;;51.17;24.00;;;;;;;35.88;48.79;101251.63;6159188;23;20792;-72
2022/07/09 02:20:14;;;;;;;37.47;20.50;;;;;;;36.04;48.20;101253.16;6183323;23;20388;-71
2022/07/09 02:22:40;;;;;;;40.37;19.23;;;;;;;36.07;48.56;101243.69;6183889;23;20404;-72
2022/07/09 02:25:06;;;;;;;30.73;17.23;;;;;;;36.06;48.32;101247.47;6193984;23;20438;-72
2022/07/09 02:27:33;;;;;;;41.73;21.60;;;;;;;36.11;47.95;101236.63;6188215;23;20477;-71
2022/07/09 02:29:59;;;;;;;31.77;21.73;;;;;;;36.04;48.07;101234.25;6188137;23;20485;-72
2022/07/09 02:32:25;;;;;;;28.93;20.20;;;;;;;36.11;48.32;101233.13;6188080;23;20851;-71
2022/07/09 02:34:51;;;;;;;29.83;17.37;;;;;;;36.14;47.79;101232.53;6188297;23;20461;-71
2022/07/09 02:37:17;;;;;;;38.67;21.77;;;;;;;36.11;48.27;101233.94;6188166;23;20445;-72
2022/07/09 02:39:43;;;;;;;37.47;18.50;;;;;;;36.14;48.10;101246.03;6215127;23;20368;-71
2022/07/09 02:42:10;;;;;;;37.00;18.70;;;;;;;36.17;47.62;101238.19;6188241;23;20379;-71
2022/07/09 02:44:36;;;;;;;35.63;19.67;;;;;;;36.18;47.49;101237.09;6188605;23;20371;-72
2022/07/09 02:47:02;;;;;;;37.73;20.60;;;;;;;36.17;48.37;101238.19;6188936;23;20978;-71
2022/07/09 02:49:29;;;;;;;36.17;19.67;;;;;;;36.15;47.66;101236.84;6190303;23;20835;-72
2022/07/09 02:51:57;;;;;;;28.13;17.30;;;;;;;36.15;47.84;101234.94;6217190;23;20829;-72
2022/07/09 02:54:24;;;;;;;35.37;18.10;;;;;;;36.15;47.91;101242.25;6190220;23;20383;-72
2022/07/09 02:56:50;;;;;;;37.77;17.33;;;;;;;36.00;48.39;101246.72;6189575;23;20383;-70
2022/07/09 02:59:16;;;;;;;32.97;19.60;;;;;;;36.05;48.22;101240.47;6189992;23;20455;-70
2022/07/09 03:01:42;;;;;;;33.03;19.50;;;;;;;36.03;48.27;101240.75;6190088;23;20763;-70
2022/07/09 03:04:08;;;;;;;41.73;21.53;;;;;;;35.84;48.54;101249.78;6189879;23;20886;-70
2022/07/09 03:06:34;;;;;;;33.50;20.83;;;;;;;35.90;48.82;101252.16;6189890;23;20477;-70
2022/07/09 03:09:00;;;;;;;33.93;18.93;;;;;;;35.99;48.37;101268.59;6189869;23;20486;-70
2022/07/09 03:11:26;;;;;;;38.67;19.87;;;;;;;35.47;47.60;101278.09;6189900;23;20957;-70
2022/07/09 03:13:53;;;;;;;30.40;16.80;;;;;;;35.26;48.40;101261.19;6189992;23;20974;-70
2022/07/09 03:16:19;;;;;;;61.73;22.37;;;;;;;35.37;48.43;101251.16;6216620;23;20395;-70
2022/07/09 03:18:45;;;;;;;76.63;30.53;;;;;;;35.20;48.80;101262.31;6189996;23;20394;-70
2022/07/09 03:21:11;;;;;;;48.20;24.10;;;;;;;35.24;48.88;101258.00;6189906;23;20426;-70
2022/07/09 03:23:39;;;;;;;52.30;23.43;;;;;;;35.41;49.30;101247.63;6165134;23;20413;-72
2022/07/09 03:26:06;;;;;;;51.40;22.23;;;;;;;35.60;48.89;101239.69;6184665;23;20502;-71
2022/07/09 03:28:34;;;;;;;50.83;23.83;;;;;;;35.53;48.81;101244.59;6184878;23;20395;-70
2022/07/09 03:31:00;;;;;;;48.47;20.90;;;;;;;35.39;49.40;101235.50;6184958;23;20391;-70
2022/07/09 03:33:27;;;;;;;48.87;19.63;;;;;;;34.93;51.05;101246.53;6135604;23;20387;-70
2022/07/09 03:35:56;;;;;;;45.87;21.10;;;;;;;34.98;51.10;101247.31;6184817;23;20927;-70
2022/07/09 03:38:24;;;;;;;34.60;19.80;;;;;;;35.23;50.97;101250.97;6184805;23;20383;-70
2022/07/09 03:40:52;;;;;;;40.83;20.60;;;;;;;35.25;50.54;101259.59;6186607;23;20396;-70
2022/07/09 03:43:19;;;;;;;30.30;19.30;;;;;;;35.28;50.52;101270.63;6184939;23;20384;-71
2022/07/09 03:45:45;;;;;;;37.77;21.80;;;;;;;35.21;51.02;101274.72;6159929;23;20793;-70
2022/07/09 03:48:11;;;;;;;34.37;19.00;;;;;;;35.34;50.83;101274.09;6184737;23;20446;-71
2022/07/09 03:50:37;;;;;;;45.33;19.10;;;;;;;35.55;50.49;101274.03;6184655;23;20384;-71
2022/07/09 03:53:03;;;;;;;38.10;20.43;;;;;;;35.57;50.06;101275.34;6184033;23;20475;-72
2022/07/09 03:55:30;;;;;;;66.70;23.13;;;;;;;35.65;50.00;101265.84;6183065;23;20388;-73
2022/07/09 03:57:56;;;;;;;35.40;22.87;;;;;;;35.73;49.94;101268.78;6186296;23;20440;-72
2022/07/09 04:00:22;;;;;;;37.80;20.03;;;;;;;35.65;50.32;101282.03;6184627;23;20451;-72
2022/07/09 04:02:48;;;;;;;32.03;20.93;;;;;;;35.51;50.05;101271.06;6184563;23;20439;-72
2022/07/09 04:05:14;;;;;;;52.57;20.53;;;;;;;35.51;49.10;101274.56;6184546;23;20673;-72
2022/07/09 04:07:41;;;;;;;48.10;18.93;;;;;;;35.42;49.20;101273.56;6184473;23;20872;-71
2022/07/09 04:10:08;;;;;;;38.13;18.53;;;;;;;35.29;49.29;101271.44;6184490;23;20479;-71
2022/07/09 04:12:34;;;;;;;36.97;19.67;;;;;;;35.17;49.82;101281.72;6184611;23;20416;-71
2022/07/09 04:15:00;;;;;;;32.90;18.03;;;;;;;34.87;50.00;101275.38;6186455;23;20379;-72
2022/07/09 04:17:26;;;;;;;35.23;16.10;;;;;;;35.19;50.02;101276.88;6184827;23;20493;-72
2022/07/09 04:19:52;;;;;;;41.30;19.73;;;;;;;35.11;50.18;101280.13;6184446;23;20384;-72
2022/07/09 04:22:18;;;;;;;28.03;16.80;;;;;;;34.81;50.14;101279.16;6184208;23;20399;-72
2022/07/09 04:24:45;;;;;;;31.30;19.47;;;;;;;34.50;50.27;101281.13;6188554;23;20462;-72
2022/07/09 04:27:11;;;;;;;27.23;16.60;;;;;;;34.34;49.73;101277.59;6189204;23;20415;-71
2022/07/09 04:29:37;;;;;;;25.23;14.10;;;;;;;34.54;50.02;101276.00;6216119;23;20732;-72
2022/07/09 04:32:03;;;;;;;31.57;18.73;;;;;;;34.45;50.07;101273.84;6189394;23;20379;-72
2022/07/09 04:34:29;;;;;;;36.33;18.50;;;;;;;34.60;49.72;101277.59;6189152;23;20415;-71
2022/07/09 04:36:56;;;;;;;37.67;16.43;;;;;;;34.82;49.71;101271.88;6189212;23;20383;-71
2022/07/09 04:39:24;;;;;;;36.73;18.10;;;;;;;35.02;49.36;101268.34;6189273;23;20403;-71
2022/07/09 04:41:50;;;;;;;37.80;18.90;;;;;;;35.16;48.93;101272.84;6164786;23;20402;-70
2022/07/09 04:44:17;;;;;;;32.73;20.20;;;;;;;35.21;48.81;101277.41;6164443;23;20476;-70
2022/07/09 04:46:44;;;;;;;36.20;20.60;;;;;;;35.14;48.86;101291.19;6216047;23;20913;-70
2022/07/09 04:49:10;;;;;;;30.17;15.83;;;;;;;34.99;48.52;101288.56;6216118;23;20418;-70
2022/07/09 04:51:37;;;;;;;43.77;17.93;;;;;;;34.79;49.58;101294.78;6189121;23;20375;-70
2022/07/09 04:54:03;;;;;;;45.13;19.07;;;;;;;34.82;49.52;101299.66;6164237;23;20478;-71
2022/07/09 04:56:30;;;;;;;45.60;20.40;;;;;;;34.91;48.83;101291.78;6164219;23;20374;-70
2022/07/09 04:58:59;;;;;;;40.40;17.90;;;;;;;35.18;47.82;101296.84;6189430;23;20351;-71
2022/07/09 05:01:25;;;;;;;33.77;16.60;;;;;;;34.94;47.72;101297.47;6189021;23;20882;-70
2022/07/09 05:03:52;;;;;;;26.23;18.33;;;;;;;35.10;48.15;101302.81;6188981;23;20386;-70
2022/07/09 05:06:19;;;;;;;34.80;17.33;;;;;;;35.00;47.97;101303.66;6188609;23;20498;-70
2022/07/09 05:08:47;;;;;;;44.30;17.47;;;;;;;34.84;48.19;101305.56;6188774;23;20415;-70
2022/07/09 05:11:14;;;;;;;39.80;18.50;;;;;;;34.82;48.66;101315.81;6188626;23;20710;-70
2022/07/09 05:13:41;;;;;;;35.03;17.70;;;;;;;34.99;48.18;101313.63;6188853;23;20407;-71
2022/07/09 05:16:08;;;;;;;38.27;18.83;;;;;;;34.85;49.07;101317.94;6188703;23;20402;-71
2022/07/09 05:18:35;;;;;;;33.30;16.27;;;;;;;34.95;48.81;101314.47;6215889;23;20356;-70
2022/07/09 05:21:01;;;;;;;31.60;20.13;;;;;;;34.97;48.74;101321.19;6189489;23;20352;-72
2022/07/09 05:23:28;;;;;;;34.47;16.00;;;;;;;34.91;48.38;101324.94;6188536;23;20487;-72
2022/07/09 05:25:54;;;;;;;47.17;18.60;;;;;;;34.73;49.57;101322.81;6183801;23;20522;-72
2022/07/09 05:28:20;;;;;;;45.17;18.90;;;;;;;34.84;49.84;101324.41;6183580;23;20404;-73
2022/07/09 05:30:46;;;;;;;38.33;20.23;;;;;;;34.95;49.41;101330.63;6183683;23;20384;-72
2022/07/09 05:33:12;;;;;;;49.23;23.70;;;;;;;34.83;50.13;101330.91;6183635;23;20412;-71
2022/07/09 05:35:38;;;;;;;46.87;21.50;;;;;;;34.88;49.79;101328.19;6183664;23;20377;-72
2022/07/09 05:38:05;;;;;;;41.23;18.60;;;;;;;34.77;49.95;101326.59;6185856;23;20365;-72
2022/07/09 05:40:31;;;;;;;58.17;21.50;;;;;;;34.62;50.07;101335.53;6183517;23;20467;-72
2022/07/09 05:42:57;;;;;;;39.20;19.53;;;;;;;34.58;50.11;101334.44;6183695;23;20385;-71
2022/07/09 05:45:24;;;;;;;42.30;21.70;;;;;;;34.70;49.94;101342.25;6183578;23;20874;-71
2022/07/09 05:47:50;;;;;;;51.03;22.53;;;;;;;34.83;49.78;101344.38;6183651;23;20390;-71
2022/07/09 05:50:16;;;;;;;39.87;19.00;;;;;;;34.38;50.85;101343.34;6183576;23;20783;-71
2022/07/09 05:52:42;;;;;;;37.17;18.80;;;;;;;34.25;51.10;101346.53;6183660;23;20475;-72
2022/07/09 05:55:09;;;;;;;45.93;19.90;;;;;;;34.45;50.75;101346.59;6184427;23;20439;-71
2022/07/09 05:57:35;;;;;;;48.20;21.53;;;;;;;34.59;51.03;101336.06;6183569;23;20415;-70
2022/07/09 06:00:03;;;;;;;47.70;21.70;;;;;;;34.68;50.63;101339.84;6185099;23;20372;-70
2022/07/09 06:02:30;;;;;;;34.70;19.10;;;;;;;34.69;50.53;101337.94;6183474;23;20388;-70
2022/07/09 06:04:56;;;;;;;42.93;20.37;;;;;;;34.37;51.25;101341.69;6185405;23;20372;-70
2022/07/09 06:07:22;;;;;;;40.70;21.30;;;;;;;34.67;50.91;101342.78;6183343;23;20428;-71
2022/07/09 06:09:48;;;;;;;47.73;21.50;;;;;;;34.72;50.38;101348.16;6183482;23;20384;-70
2022/07/09 06:12:14;;;;;;;42.00;20.70;;;;;;;34.80;50.73;101353.00;6183310;23;20442;-70
2022/07/09 06:14:41;;;;;;;45.93;20.60;;;;;;;34.56;51.36;101362.72;6158751;23;20454;-70
2022/07/09 06:17:07;;;;;;;39.03;20.67;;;;;;;34.58;51.15;101364.09;6183428;23;20380;-71
2022/07/09 06:19:37;;;;;;;47.13;23.80;;;;;;;34.44;51.77;101368.41;6183408;23;20417;-70
2022/07/09 06:22:03;;;;;;;54.90;21.83;;;;;;;34.61;51.24;101373.50;6185113;23;20791;-70
2022/07/09 06:24:30;;;;;;;43.47;25.30;;;;;;;34.43;51.56;101380.25;6186028;23;20416;-70
2022/07/09 06:26:57;;;;;;;36.33;22.83;;;;;;;34.77;51.14;101388.59;6215197;23;20435;-71
2022/07/09 06:29:23;;;;;;;62.57;26.80;;;;;;;34.63;51.31;101396.41;6188165;23;20390;-70
2022/07/09 06:31:49;;;;;;;33.10;21.80;;;;;;;34.73;51.53;101403.66;6188216;23;20386;-72
2022/07/09 06:34:15;;;;;;;48.03;21.10;;;;;;;34.93;51.02;101390.22;6188169;23;20819;-70
2022/07/09 06:36:44;;;;;;;36.03;23.50;;;;;;;35.17;50.67;101403.91;6188112;23;20848;-70
2022/07/09 06:42:03;;;;;;;60.27;24.93;;;;;;;35.52;49.87;101411.09;6214884;23;20414;-72
2022/07/09 06:44:30;;;;;;;59.17;29.83;;;;;;;35.52;49.75;101410.28;6188902;23;20382;-72
2022/07/09 06:46:56;;;;;;;53.73;27.53;;;;;;;35.67;49.22;101420.22;6215065;23;20867;-70
2022/07/09 06:49:22;;;;;;;45.57;22.87;;;;;;;35.70;49.46;101417.75;6187910;23;20419;-70
2022/07/09 06:51:48;;;;;;;45.80;22.10;;;;;;;35.59;49.40;101416.19;6187899;23;20398;-70
2022/07/09 06:54:14;;;;;;;49.40;21.07;;;;;;;35.43;49.98;101426.25;6188099;23;20395;-70
2022/07/09 06:56:40;;;;;;;45.40;19.90;;;;;;;35.24;49.53;101427.91;6188136;23;20482;-70
2022/07/09 06:59:06;;;;;;;27.10;14.37;;;;;;;34.90;50.00;101424.94;6214784;23;20371;-70
2022/07/09 07:01:32;;;;;;;33.50;15.10;;;;;;;34.72;50.05;101426.31;6188019;23;20740;-70
2022/07/09 07:03:59;;;;;;;32.13;16.70;;;;;;;34.64;50.07;101430.38;6188095;23;20541;-70
2022/07/09 07:06:25;;;;;;;32.73;15.50;;;;;;;34.48;50.32;101423.34;6215416;23;20415;-70
2022/07/09 07:08:52;;;;;;;32.97;17.53;;;;;;;34.63;50.20;101433.34;6214603;23;20384;-70
2022/07/09 07:11:19;;;;;;;37.87;17.43;;;;;;;34.58;50.17;101438.72;6187687;23;20415;-70
2022/07/09 07:13:45;;;;;;;27.73;16.77;;;;;;;34.68;50.19;101436.00;6187818;23;20868;-70
2022/07/09 07:16:11;;;;;;;39.87;20.27;;;;;;;34.66;50.23;101440.88;6187670;23;20392;-69
2022/07/09 07:18:37;;;;;;;34.93;18.93;;;;;;;34.76;50.31;101434.69;6214765;23;20866;-70
2022/07/09 07:21:03;;;;;;;36.13;19.70;;;;;;;34.70;50.10;101440.06;6214817;23;20360;-71
2022/07/09 07:23:32;;;;;;;29.20;18.33;;;;;;;34.83;49.97;101446.00;6214620;23;20689;-70
2022/07/09 07:26:00;;;;;;;45.30;20.03;;;;;;;34.61;50.65;101440.84;6182575;23;20470;-69
2022/07/09 07:28:26;;;;;;;42.17;20.80;;;;;;;34.87;50.13;101447.06;6158089;23;20427;-69
2022/07/09 07:30:52;;;;;;;41.63;21.10;;;;;;;34.59;50.92;101453.81;6185085;23;20764;-69
2022/07/09 07:33:19;;;;;;;42.57;20.47;;;;;;;34.86;50.64;101459.72;6183997;23;20411;-70
2022/07/09 07:35:45;;;;;;;40.57;21.77;;;;;;;34.44;51.19;101460.81;6184623;23;20872;-69
2022/07/09 07:38:11;;;;;;;49.50;21.97;;;;;;;34.59;51.12;101461.88;6184956;23;20387;-72
2022/07/09 07:40:37;;;;;;;44.60;21.10;;;;;;;34.93;50.52;101460.31;6184692;23;20411;-71
2022/07/09 07:43:03;;;;;;;37.50;18.83;;;;;;;34.87;50.49;101465.94;6184623;23;20442;-72
2022/07/09 07:45:31;;;;;;;42.23;19.53;;;;;;;34.58;50.52;101466.47;6184584;23;20380;-70
2022/07/09 07:47:57;;;;;;;40.13;20.87;;;;;;;34.71;50.76;101465.94;6184576;23;20395;-71
2022/07/09 07:50:24;;;;;;;43.70;19.10;;;;;;;34.63;50.63;101479.13;6186559;23;20364;-70
2022/07/09 07:52:50;;;;;;;45.80;20.80;;;;;;;34.38;51.09;101480.69;6184636;23;20423;-70
2022/07/09 07:55:16;;;;;;;37.20;19.47;;;;;;;34.53;50.93;101484.50;6186200;23;20365;-71
2022/07/09 07:57:43;;;;;;;45.43;21.80;;;;;;;34.53;51.24;101477.22;6184678;23;20492;-70
2022/07/09 08:00:09;;;;;;;35.60;21.80;;;;;;;34.52;50.88;101477.50;6184603;23;20391;-71
2022/07/09 08:02:35;;;;;;;48.97;19.43;;;;;;;34.79;50.58;101479.94;6184656;23;20424;-71
2022/07/09 08:05:02;;;;;;;36.33;20.27;;;;;;;34.34;51.33;101482.28;6184519;23;20391;-71
2022/07/09 08:07:28;;;;;;;37.73;19.70;;;;;;;34.01;52.00;101486.25;6183093;23;20420;-70
2022/07/09 08:09:54;;;;;;;48.53;22.13;;;;;;;34.01;51.91;101488.94;6182527;23;20387;-70
2022/07/09 08:12:20;;;;;;;55.80;22.13;;;;;;;34.66;50.90;101490.16;6182119;23;20494;-70
2022/07/09 08:14:46;;;;;;;39.97;19.37;;;;;;;34.67;50.12;101486.41;6182355;23;20392;-70
2022/07/09 08:17:12;;;;;;;33.40;21.40;;;;;;;34.63;50.34;101488.03;6184244;23;20381;-71
2022/07/09 08:19:38;;;;;;;31.67;19.47;;;;;;;34.63;50.45;101482.66;6181087;23;20388;-70
2022/07/09 08:22:05;;;;;;;32.60;18.57;;;;;;;34.77;49.99;101484.81;6183217;23;20705;-70
2022/07/09 08:24:31;;;;;;;36.60;18.60;;;;;;;34.64;49.96;101486.94;6182331;23;20411;-70
2022/07/09 08:26:58;;;;;;;46.70;19.37;;;;;;;34.88;49.86;101481.03;6183292;23;20480;-70
2022/07/09 08:29:25;;;;;;;31.47;19.90;;;;;;;34.76;49.96;101496.66;6183796;23;20392;-70
2022/07/09 08:31:52;;;;;;;29.23;17.57;;;;;;;34.45;50.65;101500.13;6183954;23;20478;-72
2022/07/09 08:34:18;;;;;;;36.17;18.07;;;;;;;34.67;50.11;101513.34;6184107;23;20732;-70
2022/07/09 08:36:44;;;;;;;41.23;16.00;;;;;;;34.65;50.08;101507.44;6183927;23;20408;-71
2022/07/09 08:39:11;;;;;;;35.70;16.70;;;;;;;34.80;50.00;101509.31;6185728;23;20367;-70
2022/07/09 08:41:37;;;;;;;29.53;20.43;;;;;;;34.91;50.00;101510.13;6185577;23;20384;-71
2022/07/09 08:44:04;;;;;;;30.53;18.73;;;;;;;35.06;49.30;101509.38;6183837;23;20384;-72
2022/07/09 08:46:32;;;;;;;34.17;19.47;;;;;;;35.38;49.21;101520.66;6183778;23;20447;-71
2022/07/09 08:49:00;;;;;;;40.33;20.13;;;;;;;35.36;48.54;101516.59;6182682;23;20385;-72
2022/07/09 08:51:26;;;;;;;56.60;22.37;;;;;;;35.36;48.74;101517.41;6183060;23;20519;-73
2022/07/09 08:53:57;;;;;;;43.60;21.00;;;;;;;35.25;48.96;101518.50;6183340;23;20733;-72
2022/07/09 08:56:23;;;;;;;58.30;20.80;;;;;;;34.99;49.79;101520.41;6183780;23;20384;-71
2022/07/09 08:58:49;;;;;;;50.53;24.37;;;;;;;34.98;49.58;101518.78;6181931;23;20495;-72
2022/07/09 09:01:17;;;;;;;54.33;22.77;;;;;;;35.09;49.63;101516.91;6155518;23;20450;-70
2022/07/09 09:03:44;;;;;;;56.43;22.10;;;;;;;35.23;49.68;101520.66;6183264;23;20848;-72
2022/07/09 09:06:13;;;;;;;34.83;21.07;;;;;;;35.42;49.37;101516.34;6181641;23;20764;-72
2022/07/09 09:08:43;;;;;;;44.00;22.60;;;;;;;35.32;49.92;101507.44;6181911;23;20793;-72
2022/07/09 09:11:24;;;;;;;47.23;20.83;;;;;;;35.41;49.27;101516.56;6182932;23;20411;-72
2022/07/09 09:13:53;;;;;;;37.27;20.17;;;;;;;35.39;49.39;101516.84;6182518;23;20845;-71
2022/07/09 09:16:22;;;;;;;43.60;20.97;;;;;;;34.88;50.97;101503.41;6185719;23;20693;-72
2022/07/09 09:18:50;;;;;;;43.80;21.33;;;;;;;35.19;50.43;101522.28;6183906;23;20400;-71
2022/07/09 09:21:21;;;;;;;44.23;19.60;;;;;;;35.14;50.15;101512.31;6181871;23;20412;-73
2022/07/09 09:23:54;;;;;;;56.33;25.07;;;;;;;35.20;50.13;101510.41;6181333;23;20391;-73
2022/07/09 09:26:25;;;;;;;43.87;26.63;;;;;;;35.24;50.12;101511.50;6203414;23;20443;-72
2022/07/09 09:28:56;;;;;;;39.37;19.83;;;;;;;35.37;49.89;101507.44;6186453;23;20462;-72
2022/07/09 09:31:30;;;;;;;37.13;19.80;;;;;;;35.51;49.57;101503.09;6186320;23;20962;-72
2022/07/09 09:34:09;;;;;;;46.40;20.90;;;;;;;35.44;50.10;101505.28;6187544;23;20382;-72
2022/07/09 09:36:38;;;;;;;48.93;23.53;;;;;;;35.61;49.34;101503.09;6188401;23;20379;-71
2022/07/09 09:39:25;;;;;;;43.30;22.93;;;;;;;35.67;48.78;101499.28;6188219;23;20848;-71
2022/07/09 09:41:53;;;;;;;34.97;20.23;;;;;;;35.57;49.63;101503.91;6188163;23;20443;-71
2022/07/09 09:44:29;;;;;;;49.17;23.90;;;;;;;35.73;49.66;101508.19;6188495;23;20468;-71
2022/07/09 09:46:57;;;;;;;57.60;22.10;;;;;;;35.65;49.92;101495.22;6187461;23;20964;-72
2022/07/09 09:49:23;;;;;;;46.97;23.80;;;;;;;35.54;49.94;101494.44;6188166;23;20379;-73
2022/07/09 09:52:08;;;;;;;46.17;23.47;;;;;;;35.58;50.11;101489.31;6215331;23;20358;-73
2022/07/09 09:54:36;;;;;;;49.80;24.13;;;;;;;35.48;49.79;101490.97;6163555;23;20726;-72
2022/07/09 09:57:10;;;;;;;47.97;22.90;;;;;;;35.38;49.90;101504.47;6139325;23;20836;-73
2022/07/09 09:59:44;;;;;;;55.57;23.73;;;;;;;35.11;50.95;101502.09;6163197;23;20387;-71
2022/07/09 10:02:11;;;;;;;47.50;20.33;;;;;;;35.00;50.19;101487.00;6214970;23;20362;-71
2022/07/09 10:04:42;;;;;;;39.37;18.70;;;;;;;35.21;49.55;101493.16;6187893;23;20462;-73
2022/07/09 10:07:12;;;;;;;42.97;21.73;;;;;;;35.28;49.37;101485.59;6163098;23;20766;-71
2022/07/09 10:09:38;;;;;;;42.73;23.47;;;;;;;35.44;48.96;101489.91;6187553;23;20768;-73
2022/07/09 10:12:05;;;;;;;43.47;22.40;;;;;;;35.30;49.42;101498.78;6163481;23;20379;-71
2022/07/09 10:14:33;;;;;;;45.80;22.37;;;;;;;35.31;49.64;101495.84;6184062;23;20384;-72
2022/07/09 10:17:14;;;;;;;43.63;20.83;;;;;;;35.15;50.09;101510.41;6162943;23;20720;-72
2022/07/09 10:19:55;;;;;;;42.90;20.30;;;;;;;34.81;50.39;101513.66;6187793;23;20407;-73
2022/07/09 10:22:41;;;;;;;35.47;19.33;;;;;;;34.70;50.02;101514.72;6214508;23;20438;-72
2022/07/09 10:25:09;;;;;;;41.93;22.20;;;;;;;34.72;50.14;101518.75;6212523;23;20431;-71
2022/07/09 10:27:43;;;;;;;40.70;20.90;;;;;;;34.86;49.89;101526.28;6187379;23;20426;-73
2022/07/09 10:30:22;;;;;;;42.10;19.40;;;;;;;35.21;49.43;101537.09;6212267;23;20382;-71
2022/07/09 10:33:02;;;;;;;42.43;20.90;;;;;;;35.32;48.79;101535.22;6185581;23;20386;-72
2022/07/09 10:35:28;;;;;;;44.23;17.60;;;;;;;35.51;48.92;101530.88;6184430;23;20379;-71
2022/07/09 10:37:54;;;;;;;28.03;18.10;;;;;;;35.28;48.87;101531.44;6185834;23;20942;-71
2022/07/09 10:40:23;;;;;;;33.20;18.40;;;;;;;35.43;48.90;101536.06;6187202;23;20401;-71
2022/07/09 10:43:00;;;;;;;36.53;18.73;;;;;;;35.59;48.34;101529.50;6187204;23;20446;-73
2022/07/09 10:45:37;;;;;;;34.57;22.50;;;;;;;35.39;49.27;101534.94;6185951;23;20466;-71
2022/07/09 10:48:06;;;;;;;53.67;25.90;;;;;;;35.57;48.44;101526.28;6187939;23;20399;-71
2022/07/09 10:50:37;;;;;;;43.70;21.50;;;;;;;35.20;49.02;101532.00;6183560;23;20437;-72
2022/07/09 10:53:03;;;;;;;48.40;18.93;;;;;;;35.30;49.34;101523.91;6186158;23;20466;-75
2022/07/09 10:55:30;;;;;;;40.53;21.13;;;;;;;35.36;49.40;101525.50;6187463;23;20452;-71
2022/07/09 10:57:57;;;;;;;38.40;22.90;;;;;;;35.27;49.67;101516.34;6187866;23;20387;-72
2022/07/09 11:00:25;;;;;;;41.87;20.00;;;;;;;35.40;49.42;101515.78;6187791;23;20383;-74
2022/07/09 11:03:11;;;;;;;40.23;19.13;;;;;;;35.23;49.47;101526.84;6185780;23;20383;-71
2022/07/09 11:05:45;;;;;;;46.23;22.13;;;;;;;34.87;50.41;101519.84;6186612;23;20395;-71
2022/07/09 11:08:12;;;;;;;42.40;25.13;;;;;;;35.00;50.26;101508.56;6188391;23;20399;-70
2022/07/09 11:10:39;;;;;;;46.73;22.30;;;;;;;35.30;49.75;101515.81;6189340;23;20411;-71
2022/07/09 11:13:08;;;;;;;71.77;29.30;;;;;;;35.21;49.92;101512.84;6165112;23;20379;-71